sensor_id;sensor_type;location;lat;lon;timestamp;pressure;altitude;pressure_sealevel;temperature;humidity
76762;BME280;65705;51.032;13.790;2022-12-10T00:00:37;99383.06;;;1.96;78.72
76762;BME280;65705;51.032;13.790;2022-12-10T00:03:03;99384.47;;;2.00;78.34
76762;BME280;65705;51.032;13.790;2022-12-10T00:05:28;99383.41;;;2.02;78.16
76762;BME280;65705;51.032;13.790;2022-12-10T00:07:54;99386.47;;;1.96;78.50
76762;BME280;65705;51.032;13.790;2022-12-10T00:10:20;99387.41;;;1.95;78.87
76762;BME280;65705;51.032;13.790;2022-12-10T00:12:46;99379.88;;;2.03;78.39
76762;BME280;65705;51.032;13.790;2022-12-10T00:15:11;99385.53;;;1.97;78.46
76762;BME280;65705;51.032;13.790;2022-12-10T00:17:37;99377.88;;;1.96;78.61
76762;BME280;65705;51.032;13.790;2022-12-10T00:20:03;99375.88;;;1.99;78.83
76762;BME280;65705;51.032;13.790;2022-12-10T00:22:29;99382.72;;;2.00;78.39
76762;BME280;65705;51.032;13.790;2022-12-10T00:24:54;99383.41;;;2.02;77.95
76762;BME280;65705;51.032;13.790;2022-12-10T00:27:20;99388.09;;;1.97;78.36
76762;BME280;65705;51.032;13.790;2022-12-10T00:29:46;99389.19;;;1.95;78.26
76762;BME280;65705;51.032;13.790;2022-12-10T00:32:11;99390.69;;;1.97;78.53
76762;BME280;65705;51.032;13.790;2022-12-10T00:34:37;99383.44;;;1.91;78.36
76762;BME280;65705;51.032;13.790;2022-12-10T00:37:03;99388.38;;;1.94;78.20
76762;BME280;65705;51.032;13.790;2022-12-10T00:39:28;99390.69;;;1.97;78.36
76762;BME280;65705;51.032;13.790;2022-12-10T00:41:54;99383.75;;;1.98;78.42
76762;BME280;65705;51.032;13.790;2022-12-10T00:44:20;99391.66;;;1.96;78.09
76762;BME280;65705;51.032;13.790;2022-12-10T00:46:46;99392.59;;;1.95;78.60
76762;BME280;65705;51.032;13.790;2022-12-10T00:49:11;99390.34;;;2.02;78.23
76762;BME280;65705;51.032;13.790;2022-12-10T00:51:38;99396.69;;;1.98;77.95
76762;BME280;65705;51.032;13.790;2022-12-10T00:54:03;99393.78;;;1.91;78.12
76762;BME280;65705;51.032;13.790;2022-12-10T00:56:31;99383.78;;;1.87;78.48
76762;BME280;65705;51.032;13.790;2022-12-10T00:58:59;99392.72;;;1.83;78.41
76762;BME280;65705;51.032;13.790;2022-12-10T01:01:30;99390.06;;;1.84;78.89
76762;BME280;65705;51.032;13.790;2022-12-10T01:04:04;99392.50;;;1.86;78.81
76762;BME280;65705;51.032;13.790;2022-12-10T01:06:40;99399.19;;;1.88;78.37
76762;BME280;65705;51.032;13.790;2022-12-10T01:09:09;99394.41;;;1.84;78.58
76762;BME280;65705;51.032;13.790;2022-12-10T01:11:37;99398.59;;;1.85;78.89
76762;BME280;65705;51.032;13.790;2022-12-10T01:14:05;99390.84;;;1.85;78.96
76762;BME280;65705;51.032;13.790;2022-12-10T01:16:31;99398.50;;;1.86;78.29
76762;BME280;65705;51.032;13.790;2022-12-10T01:18:58;99392.72;;;1.83;78.77
76762;BME280;65705;51.032;13.790;2022-12-10T01:21:25;99395.22;;;1.84;78.69
76762;BME280;65705;51.032;13.790;2022-12-10T01:23:52;99395.00;;;1.76;78.66
76762;BME280;65705;51.032;13.790;2022-12-10T01:26:21;99404.88;;;1.82;78.53
76762;BME280;65705;51.032;13.790;2022-12-10T01:28:47;99394.13;;;1.87;78.06
76762;BME280;65705;51.032;13.790;2022-12-10T01:31:28;99402.41;;;1.81;78.30
76762;BME280;65705;51.032;13.790;2022-12-10T01:33:55;99407.59;;;1.81;78.78
76762;BME280;65705;51.032;13.790;2022-12-10T01:36:29;99407.00;;;1.77;78.33
76762;BME280;65705;51.032;13.790;2022-12-10T01:38:55;99410.16;;;1.81;78.60
76762;BME280;65705;51.032;13.790;2022-12-10T01:41:27;99416.63;;;1.75;78.70
76762;BME280;65705;51.032;13.790;2022-12-10T01:44:03;99416.50;;;1.77;78.58
76762;BME280;65705;51.032;13.790;2022-12-10T01:46:32;99416.97;;;1.82;78.64
76762;BME280;65705;51.032;13.790;2022-12-10T01:49:01;99421.22;;;1.72;79.23
76762;BME280;65705;51.032;13.790;2022-12-10T01:51:31;99418.16;;;1.67;79.24
76762;BME280;65705;51.032;13.790;2022-12-10T01:53:58;99415.94;;;1.73;79.00
76762;BME280;65705;51.032;13.790;2022-12-10T01:56:24;99417.25;;;1.68;78.69
76762;BME280;65705;51.032;13.790;2022-12-10T01:58:53;99417.81;;;1.71;78.70
76762;BME280;65705;51.032;13.790;2022-12-10T02:04:22;99411.81;;;1.71;78.93
76762;BME280;65705;51.032;13.790;2022-12-10T02:07:31;99403.72;;;1.64;78.86
76762;BME280;65705;51.032;13.790;2022-12-10T02:10:19;99409.47;;;1.68;79.02
76762;BME280;65705;51.032;13.790;2022-12-10T02:12:47;99410.66;;;1.64;79.15
76762;BME280;65705;51.032;13.790;2022-12-10T02:15:33;99407.47;;;1.60;79.04
76762;BME280;65705;51.032;13.790;2022-12-10T02:18:05;99400.44;;;1.62;79.01
76762;BME280;65705;51.032;13.790;2022-12-10T02:20:52;99404.19;;;1.58;79.25
76762;BME280;65705;51.032;13.790;2022-12-10T02:23:26;99403.72;;;1.53;79.53
76762;BME280;65705;51.032;13.790;2022-12-10T02:25:57;99398.19;;;1.58;79.45
76762;BME280;65705;51.032;13.790;2022-12-10T02:31:08;99404.06;;;1.60;79.35
76762;BME280;65705;51.032;13.790;2022-12-10T02:33:39;99393.72;;;1.60;79.26
76762;BME280;65705;51.032;13.790;2022-12-10T02:36:07;99391.84;;;1.62;78.84
76762;BME280;65705;51.032;13.790;2022-12-10T02:38:37;99392.81;;;1.61;78.79
76762;BME280;65705;51.032;13.790;2022-12-10T02:41:09;99401.47;;;1.60;79.39
76762;BME280;65705;51.032;13.790;2022-12-10T02:43:38;99405.47;;;1.64;79.26
76762;BME280;65705;51.032;13.790;2022-12-10T02:46:05;99395.59;;;1.58;78.58
76762;BME280;65705;51.032;13.790;2022-12-10T02:48:32;99400.19;;;1.54;78.90
76762;BME280;65705;51.032;13.790;2022-12-10T02:50:59;99401.16;;;1.53;78.66
76762;BME280;65705;51.032;13.790;2022-12-10T02:53:26;99400.09;;;1.56;78.59
76762;BME280;65705;51.032;13.790;2022-12-10T03:04:17;99401.59;;;1.58;78.95
76762;BME280;65705;51.032;13.790;2022-12-10T03:06:52;99400.78;;;1.58;78.67
76762;BME280;65705;51.032;13.790;2022-12-10T03:09:22;99408.78;;;1.55;78.60
76762;BME280;65705;51.032;13.790;2022-12-10T03:11:53;99416.66;;;1.53;78.61
76762;BME280;65705;51.032;13.790;2022-12-10T03:14:27;99421.25;;;1.50;78.67
76762;BME280;65705;51.032;13.790;2022-12-10T03:16:56;99422.66;;;1.54;78.62
76762;BME280;65705;51.032;13.790;2022-12-10T03:19:28;99416.78;;;1.52;78.60
76762;BME280;65705;51.032;13.790;2022-12-10T03:21:56;99423.47;;;1.54;78.68
76762;BME280;65705;51.032;13.790;2022-12-10T03:24:25;99422.53;;;1.55;78.40
76762;BME280;65705;51.032;13.790;2022-12-10T03:26:52;99420.06;;;1.54;78.11
76762;BME280;65705;51.032;13.790;2022-12-10T03:29:34;99419.13;;;1.55;77.87
76762;BME280;65705;51.032;13.790;2022-12-10T03:32:01;99422.88;;;1.51;78.09
76762;BME280;65705;51.032;13.790;2022-12-10T03:34:28;99424.78;;;1.49;78.43
76762;BME280;65705;51.032;13.790;2022-12-10T03:36:54;99430.28;;;1.55;78.34
76762;BME280;65705;51.032;13.790;2022-12-10T03:39:20;99427.47;;;1.58;77.79
76762;BME280;65705;51.032;13.790;2022-12-10T03:41:46;99425.00;;;1.57;78.08
76762;BME280;65705;51.032;13.790;2022-12-10T03:44:12;99428.41;;;1.57;77.86
76762;BME280;65705;51.032;13.790;2022-12-10T03:46:37;99431.00;;;1.57;78.12
76762;BME280;65705;51.032;13.790;2022-12-10T03:49:04;99424.41;;;1.53;77.70
76762;BME280;65705;51.032;13.790;2022-12-10T03:51:30;99428.63;;;1.54;78.11
76762;BME280;65705;51.032;13.790;2022-12-10T03:53:56;99429.94;;;1.60;77.93
76762;BME280;65705;51.032;13.790;2022-12-10T03:56:22;99419.13;;;1.55;78.52
76762;BME280;65705;51.032;13.790;2022-12-10T03:58:48;99422.06;;;1.61;78.35
76762;BME280;65705;51.032;13.790;2022-12-10T04:01:14;99421.00;;;1.64;78.12
76762;BME280;65705;51.032;13.790;2022-12-10T04:03:41;99426.28;;;1.62;78.07
76762;BME280;65705;51.032;13.790;2022-12-10T04:06:11;99417.50;;;1.65;78.32
76762;BME280;65705;51.032;13.790;2022-12-10T04:08:37;99424.28;;;1.66;78.22
76762;BME280;65705;51.032;13.790;2022-12-10T04:11:04;99420.88;;;1.65;78.03
76762;BME280;65705;51.032;13.790;2022-12-10T04:13:35;99425.47;;;1.62;78.03
76762;BME280;65705;51.032;13.790;2022-12-10T04:16:20;99420.75;;;1.67;78.12
76762;BME280;65705;51.032;13.790;2022-12-10T04:18:53;99424.28;;;1.66;77.77
76762;BME280;65705;51.032;13.790;2022-12-10T04:21:18;99431.22;;;1.65;78.03
76762;BME280;65705;51.032;13.790;2022-12-10T04:24:03;99427.13;;;1.63;78.39
76762;BME280;65705;51.032;13.790;2022-12-10T04:26:50;99418.78;;;1.59;78.11
76762;BME280;65705;51.032;13.790;2022-12-10T04:29:20;99422.16;;;1.60;78.50
76762;BME280;65705;51.032;13.790;2022-12-10T04:31:46;99423.94;;;1.59;78.73
76762;BME280;65705;51.032;13.790;2022-12-10T04:34:11;99425.00;;;1.57;78.97
76762;BME280;65705;51.032;13.790;2022-12-10T04:36:37;99418.53;;;1.62;78.85
76762;BME280;65705;51.032;13.790;2022-12-10T04:39:03;99420.06;;;1.65;78.21
76762;BME280;65705;51.032;13.790;2022-12-10T04:41:29;99413.38;;;1.62;78.80
76762;BME280;65705;51.032;13.790;2022-12-10T04:43:55;99418.06;;;1.57;78.90
76762;BME280;65705;51.032;13.790;2022-12-10T04:46:21;99425.72;;;1.59;78.96
76762;BME280;65705;51.032;13.790;2022-12-10T04:48:47;99433.47;;;1.59;79.46
76762;BME280;65705;51.032;13.790;2022-12-10T04:51:13;99419.38;;;1.63;79.27
76762;BME280;65705;51.032;13.790;2022-12-10T04:53:38;99416.28;;;1.58;79.13
76762;BME280;65705;51.032;13.790;2022-12-10T04:56:04;99415.94;;;1.62;78.92
76762;BME280;65705;51.032;13.790;2022-12-10T04:58:32;99418.78;;;1.59;79.31
76762;BME280;65705;51.032;13.790;2022-12-10T05:01:04;99416.06;;;1.61;79.07
76762;BME280;65705;51.032;13.790;2022-12-10T05:03:30;99408.53;;;1.58;79.05
76762;BME280;65705;51.032;13.790;2022-12-10T05:06:04;99409.16;;;1.61;79.31
76762;BME280;65705;51.032;13.790;2022-12-10T05:08:34;99410.31;;;1.57;79.19
76762;BME280;65705;51.032;13.790;2022-12-10T05:11:01;99415.03;;;1.52;79.45
76762;BME280;65705;51.032;13.790;2022-12-10T05:13:28;99418.78;;;1.59;78.82
76762;BME280;65705;51.032;13.790;2022-12-10T05:15:54;99419.59;;;1.60;79.10
76762;BME280;65705;51.032;13.790;2022-12-10T05:18:19;99414.53;;;1.58;79.22
76762;BME280;65705;51.032;13.790;2022-12-10T05:20:45;99412.53;;;1.62;79.25
76762;BME280;65705;51.032;13.790;2022-12-10T05:23:11;99408.44;;;1.59;79.31
76762;BME280;65705;51.032;13.790;2022-12-10T05:26:03;99414.53;;;1.58;79.15
76762;BME280;65705;51.032;13.790;2022-12-10T05:28:31;99410.06;;;1.60;79.23
76762;BME280;65705;51.032;13.790;2022-12-10T05:30:57;99409.63;;;1.55;79.68
76762;BME280;65705;51.032;13.790;2022-12-10T05:33:24;99412.19;;;1.55;79.63
76762;BME280;65705;51.032;13.790;2022-12-10T05:35:57;99412.31;;;1.54;79.62
76762;BME280;65705;51.032;13.790;2022-12-10T05:38:24;99415.97;;;1.51;79.99
76762;BME280;65705;51.032;13.790;2022-12-10T05:40:50;99421.50;;;1.47;80.11
76762;BME280;65705;51.032;13.790;2022-12-10T05:43:16;99421.50;;;1.47;79.95
76762;BME280;65705;51.032;13.790;2022-12-10T05:45:42;99423.00;;;1.49;79.95
76762;BME280;65705;51.032;13.790;2022-12-10T05:48:10;99426.28;;;1.51;79.56
76762;BME280;65705;51.032;13.790;2022-12-10T05:50:36;99430.19;;;1.57;79.39
76762;BME280;65705;51.032;13.790;2022-12-10T05:53:02;99427.72;;;1.55;79.50
76762;BME280;65705;51.032;13.790;2022-12-10T05:55:28;99420.06;;;1.54;79.73
76762;BME280;65705;51.032;13.790;2022-12-10T05:57:55;99428.88;;;1.51;79.75
76762;BME280;65705;51.032;13.790;2022-12-10T06:00:21;99425.72;;;1.48;79.75
76762;BME280;65705;51.032;13.790;2022-12-10T06:02:52;99429.00;;;1.50;79.94
76762;BME280;65705;51.032;13.790;2022-12-10T06:05:18;99423.50;;;1.43;79.82
76762;BME280;65705;51.032;13.790;2022-12-10T06:07:44;99422.19;;;1.49;79.92
76762;BME280;65705;51.032;13.790;2022-12-10T06:10:10;99430.41;;;1.43;80.11
76762;BME280;65705;51.032;13.790;2022-12-10T06:12:37;99431.25;;;1.43;80.19
76762;BME280;65705;51.032;13.790;2022-12-10T06:15:04;99432.53;;;1.49;79.91
76762;BME280;65705;51.032;13.790;2022-12-10T06:17:30;99439.00;;;1.43;79.91
76762;BME280;65705;51.032;13.790;2022-12-10T06:19:55;99427.00;;;1.42;79.92
76762;BME280;65705;51.032;13.790;2022-12-10T06:22:21;99433.72;;;1.45;80.27
76762;BME280;65705;51.032;13.790;2022-12-10T06:24:47;99438.75;;;1.46;80.42
76762;BME280;65705;51.032;13.790;2022-12-10T06:27:12;99437.34;;;1.53;79.87
76762;BME280;65705;51.032;13.790;2022-12-10T06:29:38;99445.09;;;1.53;79.97
76762;BME280;65705;51.032;13.790;2022-12-10T06:32:04;99445.22;;;1.52;79.67
76762;BME280;65705;51.032;13.790;2022-12-10T06:34:29;99441.59;;;1.43;80.30
76762;BME280;65705;51.032;13.790;2022-12-10T06:36:55;99443.81;;;1.37;80.31
76762;BME280;65705;51.032;13.790;2022-12-10T06:39:22;99445.94;;;1.43;80.28
76762;BME280;65705;51.032;13.790;2022-12-10T06:41:48;99447.47;;;1.45;80.33
76762;BME280;65705;51.032;13.790;2022-12-10T06:44:14;99458.03;;;1.42;80.41
76762;BME280;65705;51.032;13.790;2022-12-10T06:46:40;99455.56;;;1.41;80.18
76762;BME280;65705;51.032;13.790;2022-12-10T06:49:07;99465.91;;;1.41;80.67
76762;BME280;65705;51.032;13.790;2022-12-10T06:51:33;99463.06;;;1.44;80.07
76762;BME280;65705;51.032;13.790;2022-12-10T06:53:59;99457.44;;;1.39;80.42
76762;BME280;65705;51.032;13.790;2022-12-10T06:56:25;99462.16;;;1.45;79.82
76762;BME280;65705;51.032;13.790;2022-12-10T06:58:52;99468.03;;;1.47;79.79
76762;BME280;65705;51.032;13.790;2022-12-10T07:01:23;99466.03;;;1.39;80.40
76762;BME280;65705;51.032;13.790;2022-12-10T07:03:52;99478.59;;;1.44;80.32
76762;BME280;65705;51.032;13.790;2022-12-10T07:06:19;99471.19;;;1.39;80.09
76762;BME280;65705;51.032;13.790;2022-12-10T07:08:45;99468.50;;;1.52;81.69
76762;BME280;65705;51.032;13.790;2022-12-10T07:11:13;99472.59;;;1.54;80.11
76762;BME280;65705;51.032;13.790;2022-12-10T07:13:40;99470.25;;;1.51;79.89
76762;BME280;65705;51.032;13.790;2022-12-10T07:16:18;99474.94;;;1.46;80.52
76762;BME280;65705;51.032;13.790;2022-12-10T07:18:45;99473.19;;;1.47;80.62
76762;BME280;65705;51.032;13.790;2022-12-10T07:21:20;99471.41;;;1.47;80.39
76762;BME280;65705;51.032;13.790;2022-12-10T07:23:47;99469.06;;;1.55;80.42
76762;BME280;65705;51.032;13.790;2022-12-10T07:26:13;99473.28;;;1.56;79.54
76762;BME280;65705;51.032;13.790;2022-12-10T07:28:39;99477.88;;;1.53;80.13
76762;BME280;65705;51.032;13.790;2022-12-10T07:31:06;99477.75;;;1.54;79.91
76762;BME280;65705;51.032;13.790;2022-12-10T07:33:33;99479.66;;;1.52;79.98
76762;BME280;65705;51.032;13.790;2022-12-10T07:36:02;99484.13;;;1.50;80.08
76762;BME280;65705;51.032;13.790;2022-12-10T07:38:28;99481.28;;;1.53;80.17
76762;BME280;65705;51.032;13.790;2022-12-10T07:40:54;99487.31;;;1.54;80.33
76762;BME280;65705;51.032;13.790;2022-12-10T07:43:19;99481.19;;;1.55;80.19
76762;BME280;65705;51.032;13.790;2022-12-10T07:45:45;99484.72;;;1.54;80.34
76762;BME280;65705;51.032;13.790;2022-12-10T07:48:11;99485.06;;;1.60;79.75
76762;BME280;65705;51.032;13.790;2022-12-10T07:50:37;99476.13;;;1.53;79.73
76762;BME280;65705;51.032;13.790;2022-12-10T07:53:03;99480.72;;;1.50;80.14
76762;BME280;65705;51.032;13.790;2022-12-10T07:55:29;99485.50;;;1.54;80.15
76762;BME280;65705;51.032;13.790;2022-12-10T07:57:54;99491.63;;;1.53;79.86
76762;BME280;65705;51.032;13.790;2022-12-10T08:00:20;99490.22;;;1.49;80.53
76762;BME280;65705;51.032;13.790;2022-12-10T08:02:46;99483.53;;;1.47;80.67
76762;BME280;65705;51.032;13.790;2022-12-10T08:05:11;99487.75;;;1.48;80.90
76762;BME280;65705;51.032;13.790;2022-12-10T08:07:37;99484.25;;;1.49;80.57
76762;BME280;65705;51.032;13.790;2022-12-10T08:10:03;99493.16;;;1.45;80.80
76762;BME280;65705;51.032;13.790;2022-12-10T08:12:29;99483.41;;;1.48;81.17
76762;BME280;65705;51.032;13.790;2022-12-10T08:14:55;99487.28;;;1.43;80.93
76762;BME280;65705;51.032;13.790;2022-12-10T08:17:21;99489.03;;;1.42;81.16
76762;BME280;65705;51.032;13.790;2022-12-10T08:19:46;99496.69;;;1.44;81.28
76762;BME280;65705;51.032;13.790;2022-12-10T08:22:12;99501.97;;;1.42;81.05
76762;BME280;65705;51.032;13.790;2022-12-10T08:24:38;99504.56;;;1.42;80.95
76762;BME280;65705;51.032;13.790;2022-12-10T08:27:03;99493.63;;;1.39;80.93
76762;BME280;65705;51.032;13.790;2022-12-10T08:29:29;99496.91;;;1.41;81.11
76762;BME280;65705;51.032;13.790;2022-12-10T08:31:55;99497.16;;;1.38;81.39
76762;BME280;65705;51.032;13.790;2022-12-10T08:34:21;99499.50;;;1.41;81.19
76762;BME280;65705;51.032;13.790;2022-12-10T08:36:47;99501.97;;;1.42;81.41
76762;BME280;65705;51.032;13.790;2022-12-10T08:39:12;99503.16;;;1.49;80.96
76762;BME280;65705;51.032;13.790;2022-12-10T08:41:45;99504.44;;;1.55;80.87
76762;BME280;65705;51.032;13.790;2022-12-10T08:44:12;99499.53;;;1.52;81.20
76762;BME280;65705;51.032;13.790;2022-12-10T08:46:38;99513.16;;;1.54;81.06
76762;BME280;65705;51.032;13.790;2022-12-10T08:49:05;99508.19;;;1.51;81.16
76762;BME280;65705;51.032;13.790;2022-12-10T08:51:32;99512.66;;;1.60;80.88
76762;BME280;65705;51.032;13.790;2022-12-10T08:53:58;99517.13;;;1.58;81.00
76762;BME280;65705;51.032;13.790;2022-12-10T08:56:24;99517.75;;;1.61;80.64
76762;BME280;65705;51.032;13.790;2022-12-10T08:58:51;99522.56;;;1.66;80.54
76762;BME280;65705;51.032;13.790;2022-12-10T09:01:17;99527.03;;;1.64;80.37
76762;BME280;65705;51.032;13.790;2022-12-10T09:03:44;99530.06;;;1.69;80.41
76762;BME280;65705;51.032;13.790;2022-12-10T09:06:13;99528.06;;;1.72;79.84
76762;BME280;65705;51.032;13.790;2022-12-10T09:08:40;99526.09;;;1.65;79.91
76762;BME280;65705;51.032;13.790;2022-12-10T09:11:13;99525.13;;;1.66;79.99
76762;BME280;65705;51.032;13.790;2022-12-10T09:13:40;99530.44;;;1.64;79.83
76762;BME280;65705;51.032;13.790;2022-12-10T09:16:06;99531.34;;;1.63;79.85
76762;BME280;65705;51.032;13.790;2022-12-10T09:18:32;99524.69;;;1.61;80.53
76762;BME280;65705;51.032;13.790;2022-12-10T09:20:58;99528.78;;;1.63;80.40
76762;BME280;65705;51.032;13.790;2022-12-10T09:23:23;99523.50;;;1.65;80.09
76762;BME280;65705;51.032;13.790;2022-12-10T09:25:49;99530.69;;;1.61;80.58
76762;BME280;65705;51.032;13.790;2022-12-10T09:28:15;99532.31;;;1.62;80.48
76762;BME280;65705;51.032;13.790;2022-12-10T09:30:41;99531.34;;;1.63;80.32
76762;BME280;65705;51.032;13.790;2022-12-10T09:33:07;99532.19;;;1.64;80.29
76762;BME280;65705;51.032;13.790;2022-12-10T09:35:32;99528.91;;;1.62;80.20
76762;BME280;65705;51.032;13.790;2022-12-10T09:37:58;99530.44;;;1.64;80.34
76762;BME280;65705;51.032;13.790;2022-12-10T09:40:41;99532.44;;;1.61;80.50
76762;BME280;65705;51.032;13.790;2022-12-10T09:43:22;99529.47;;;1.65;80.33
76762;BME280;65705;51.032;13.790;2022-12-10T09:48:46;99524.19;;;1.67;80.15
76762;BME280;65705;51.032;13.790;2022-12-10T09:51:23;99526.91;;;1.65;80.03
76762;BME280;65705;51.032;13.790;2022-12-10T09:53:51;99524.69;;;1.72;79.73
76762;BME280;65705;51.032;13.790;2022-12-10T09:56:34;99521.97;;;1.62;79.79
76762;BME280;65705;51.032;13.790;2022-12-10T09:59:04;99524.69;;;1.61;79.97
76762;BME280;65705;51.032;13.790;2022-12-10T10:01:33;99523.00;;;1.60;79.99
76762;BME280;65705;51.032;13.790;2022-12-10T10:04:00;99518.78;;;1.59;80.27
76762;BME280;65705;51.032;13.790;2022-12-10T10:06:28;99520.44;;;1.60;80.31
76762;BME280;65705;51.032;13.790;2022-12-10T10:08:57;99517.97;;;1.58;80.59
76762;BME280;65705;51.032;13.790;2022-12-10T10:11:28;99518.91;;;1.57;80.49
76762;BME280;65705;51.032;13.790;2022-12-10T10:14:13;99521.63;;;1.56;80.42
76762;BME280;65705;51.032;13.790;2022-12-10T10:16:47;99512.66;;;1.60;80.14
76762;BME280;65705;51.032;13.790;2022-12-10T10:19:17;99510.22;;;1.58;80.50
76762;BME280;65705;51.032;13.790;2022-12-10T10:21:49;99509.28;;;1.59;80.62
76762;BME280;65705;51.032;13.790;2022-12-10T10:24:21;99513.38;;;1.62;80.62
76762;BME280;65705;51.032;13.790;2022-12-10T10:26:48;99511.63;;;1.62;80.05
76762;BME280;65705;51.032;13.790;2022-12-10T10:29:17;99508.78;;;1.65;80.06
76762;BME280;65705;51.032;13.790;2022-12-10T10:31:45;99509.63;;;1.66;80.05
76762;BME280;65705;51.032;13.790;2022-12-10T10:36:39;99508.91;;;1.64;80.16
76762;BME280;65705;51.032;13.790;2022-12-10T10:41:45;99511.25;;;1.67;80.00
76762;BME280;65705;51.032;13.790;2022-12-10T10:44:20;99510.09;;;1.60;80.27
76762;BME280;65705;51.032;13.790;2022-12-10T10:46:48;99505.88;;;1.70;80.10
76762;BME280;65705;51.032;13.790;2022-12-10T10:51:46;99504.59;;;1.75;79.89
76762;BME280;65705;51.032;13.790;2022-12-10T10:54:31;99505.88;;;1.59;80.54
76762;BME280;65705;51.032;13.790;2022-12-10T10:56:58;99503.88;;;1.62;80.21
76762;BME280;65705;51.032;13.790;2022-12-10T10:59:30;99508.47;;;1.70;79.80
76762;BME280;65705;51.032;13.790;2022-12-10T11:05:05;99509.16;;;1.61;79.84
76762;BME280;65705;51.032;13.790;2022-12-10T11:07:35;99505.50;;;1.63;79.73
76762;BME280;65705;51.032;13.790;2022-12-10T11:10:03;99502.13;;;1.63;79.96
76762;BME280;65705;51.032;13.790;2022-12-10T11:12:37;99504.56;;;1.64;79.68
76762;BME280;65705;51.032;13.790;2022-12-10T11:17:56;99507.03;;;1.66;79.35
76762;BME280;65705;51.032;13.790;2022-12-10T11:20:26;99500.00;;;1.68;79.61
76762;BME280;65705;51.032;13.790;2022-12-10T11:25:51;99501.03;;;1.65;79.89
76762;BME280;65705;51.032;13.790;2022-12-10T11:29:10;99511.63;;;1.62;80.51
76762;BME280;65705;51.032;13.790;2022-12-10T11:37:31;99513.84;;;1.67;79.79
76762;BME280;65705;51.032;13.790;2022-12-10T11:40:06;99500.31;;;1.63;79.42
76762;BME280;65705;51.032;13.790;2022-12-10T11:50:34;99519.00;;;1.34;81.23
76762;BME280;65705;51.032;13.790;2022-12-10T12:01:42;99516.97;;;1.15;82.15
76762;BME280;65705;51.032;13.790;2022-12-10T12:04:23;99517.53;;;0.96;82.71
76762;BME280;65705;51.032;13.790;2022-12-10T12:12:37;99515.72;;;0.86;82.98
76762;BME280;65705;51.032;13.790;2022-12-10T12:15:21;99516.56;;;0.97;83.14
76762;BME280;65705;51.032;13.790;2022-12-10T12:17:56;99510.69;;;0.95;82.89
76762;BME280;65705;51.032;13.790;2022-12-10T12:20:41;99519.81;;;0.88;83.13
76762;BME280;65705;51.032;13.790;2022-12-10T12:24:16;99515.25;;;0.92;83.09
76762;BME280;65705;51.032;13.790;2022-12-10T12:28:52;99510.97;;;1.03;82.60
76762;BME280;65705;51.032;13.790;2022-12-10T12:31:23;99514.47;;;1.02;82.22
76762;BME280;65705;51.032;13.790;2022-12-10T12:34:27;99514.69;;;0.99;82.02
76762;BME280;65705;51.032;13.790;2022-12-10T12:36:54;99509.19;;;1.04;82.33
76762;BME280;65705;51.032;13.790;2022-12-10T12:39:32;99507.06;;;0.98;82.68
76762;BME280;65705;51.032;13.790;2022-12-10T12:42:31;99500.34;;;0.95;82.79
76762;BME280;65705;51.032;13.790;2022-12-10T12:45:12;99510.47;;;0.98;82.72
76762;BME280;65705;51.032;13.790;2022-12-10T12:47:55;99507.66;;;1.01;82.18
76762;BME280;65705;51.032;13.790;2022-12-10T12:50:29;99508.25;;;1.05;81.97
76762;BME280;65705;51.032;13.790;2022-12-10T12:52:59;99508.38;;;1.03;82.14
76762;BME280;65705;51.032;13.790;2022-12-10T13:01:53;99516.63;;;1.20;80.73
76762;BME280;65705;51.032;13.790;2022-12-10T13:03:53;99513.34;;;1.18;80.70
76762;BME280;65705;51.032;13.790;2022-12-10T13:06:22;99512.06;;;1.23;80.71
76762;BME280;65705;51.032;13.790;2022-12-10T13:11:16;99508.78;;;1.32;80.09
76762;BME280;65705;51.032;13.790;2022-12-10T13:22:10;99517.69;;;1.28;80.12
76762;BME280;65705;51.032;13.790;2022-12-10T13:40:42;99530.38;;;1.31;79.67
76762;BME280;65705;51.032;13.790;2022-12-10T13:43:37;99544.59;;;1.26;80.39
76762;BME280;65705;51.032;13.790;2022-12-10T13:46:33;99540.13;;;1.28;80.04
76762;BME280;65705;51.032;13.790;2022-12-10T13:49:03;99549.53;;;1.29;80.11
76762;BME280;65705;51.032;13.790;2022-12-10T13:51:42;99548.13;;;1.25;80.20
76762;BME280;65705;51.032;13.790;2022-12-10T13:54:28;99550.81;;;1.23;80.11
76762;BME280;65705;51.032;13.790;2022-12-10T14:00:19;99554.44;;;1.21;80.53
76762;BME280;65705;51.032;13.790;2022-12-10T14:08:28;99558.53;;;1.12;81.00
76762;BME280;65705;51.032;13.790;2022-12-10T14:10:57;99561.00;;;1.14;81.92
76762;BME280;65705;51.032;13.790;2022-12-10T14:13:32;99560.53;;;1.08;82.20
76762;BME280;65705;51.032;13.790;2022-12-10T14:16:00;99555.47;;;1.07;81.87
76762;BME280;65705;51.032;13.790;2022-12-10T14:18:28;99557.25;;;1.18;81.43
76762;BME280;65705;51.032;13.790;2022-12-10T14:20:54;99570.44;;;1.15;81.24
76762;BME280;65705;51.032;13.790;2022-12-10T14:23:33;99563.22;;;1.07;81.28
76762;BME280;65705;51.032;13.790;2022-12-10T14:29:00;99567.44;;;1.08;81.81
76762;BME280;65705;51.032;13.790;2022-12-10T14:31:36;99572.72;;;1.06;80.95
76762;BME280;65705;51.032;13.790;2022-12-10T14:34:08;99573.69;;;1.05;80.53
76762;BME280;65705;51.032;13.790;2022-12-10T14:36:49;99579.16;;;1.01;81.36
76762;BME280;65705;51.032;13.790;2022-12-10T14:39:27;99579.13;;;0.90;81.29
76762;BME280;65705;51.032;13.790;2022-12-10T14:41:57;99576.69;;;0.99;80.63
76762;BME280;65705;51.032;13.790;2022-12-10T14:44:24;99590.56;;;0.98;80.36
76762;BME280;65705;51.032;13.790;2022-12-10T14:46:50;99586.88;;;0.90;80.41
76762;BME280;65705;51.032;13.790;2022-12-10T14:49:19;99596.47;;;0.88;81.15
76762;BME280;65705;51.032;13.790;2022-12-10T14:51:46;99589.34;;;0.91;80.50
76762;BME280;65705;51.032;13.790;2022-12-10T14:54:38;99590.88;;;0.94;80.84
76762;BME280;65705;51.032;13.790;2022-12-10T14:57:07;99588.66;;;0.89;81.22
76762;BME280;65705;51.032;13.790;2022-12-10T14:59:39;99580.91;;;1.00;80.52
76762;BME280;65705;51.032;13.790;2022-12-10T15:02:32;99592.97;;;0.89;81.10